Wetterdaten: aktuell Mittwoch, 06.05.2026 20:45
Datum Zeit Temp. A. Feuchte A. Luftdruck Regen Wind Richtung Richtung Sonnenschein UV Windböen
06.05.2026 20:45 11,7 °C 86 % 1006,3 hPa 0,0 l/m² 5,6 km/h S 184 ° 0 min 0,0 UV-I 11,3 km/h
06.05.2026 19:45 11,9 °C 86 % 1005,1 hPa 6,2 l/m² 3,5 km/h S-SW 193 ° 0 min 0,0 UV-I 9,7 km/h
06.05.2026 18:45 15,7 °C 64 % 1004,1 hPa 0,0 l/m² 7,6 km/h S-SW 199 ° 0 min 0,0 UV-I 19,3 km/h
06.05.2026 17:45 19,7 °C 52 % 1002,2 hPa 0,0 l/m² 3,8 km/h N-NW 348 ° 5 min 0,9 UV-I 6,4 km/h
06.05.2026 16:45 18,9 °C 52 % 1002,8 hPa 0,0 l/m² 1,1 km/h SW 219 ° 0 min 0,6 UV-I 3,2 km/h
06.05.2026 15:45 19,8 °C 47 % 1002,9 hPa 0,0 l/m² 1,6 km/h O-SO 115 ° 40 min 1,3 UV-I 4,8 km/h
06.05.2026 14:45 19,9 °C 54 % 1003,3 hPa 0,0 l/m² 2,6 km/h N 355 ° 50 min 3,0 UV-I 4,8 km/h
06.05.2026 13:45 18,4 °C 57 % 1003,5 hPa 0,0 l/m² 2,8 km/h NO 38 ° 15 min 1,3 UV-I 8,0 km/h
06.05.2026 12:45 18,4 °C 59 % 1004,2 hPa 0,0 l/m² 2,7 km/h O-NO 76 ° 15 min 2,6 UV-I 6,4 km/h
06.05.2026 11:45 17,0 °C 61 % 1004,5 hPa 0,0 l/m² 1,1 km/h O-SO 112 ° 35 min 2,1 UV-I 3,2 km/h
06.05.2026 10:45 15,1 °C 72 % 1004,5 hPa 0,0 l/m² 0,2 km/h O 93 ° 0 min 1,7 UV-I 1,6 km/h
06.05.2026 09:45 13,7 °C 77 % 1005,0 hPa 0,0 l/m² 0,7 km/h S-SW 212 ° 0 min 0,8 UV-I 3,2 km/h
06.05.2026 08:45 12,9 °C 79 % 1004,8 hPa 0,0 l/m² 2,8 km/h O 96 ° 0 min 0,6 UV-I 4,8 km/h
06.05.2026 07:45 10,9 °C 85 % 1005,0 hPa 0,0 l/m² 0,0 km/h O-SO 112 ° 0 min 0,0 UV-I 3,2 km/h
06.05.2026 06:45 9,4 °C 88 % 1005,5 hPa 0,0 l/m² 0,0 km/h N 0 ° 0 min 0,0 UV-I 0,0 km/h
06.05.2026 05:45 9,4 °C 86 % 1005,6 hPa 0,0 l/m² 1,6 km/h SO 135 ° 0 min 0,0 UV-I 3,2 km/h
06.05.2026 04:45 9,9 °C 85 % 1006,0 hPa 0,0 l/m² 0,0 km/h N 0 ° 0 min 0,0 UV-I 0,0 km/h
06.05.2026 03:45 10,7 °C 83 % 1006,1 hPa 0,0 l/m² 0,0 km/h SO 135 ° 0 min 0,0 UV-I 3,2 km/h
06.05.2026 02:45 11,5 °C 81 % 1006,0 hPa 0,0 l/m² 0,0 km/h W 270 ° 0 min 0,0 UV-I 3,2 km/h
06.05.2026 01:45 12,6 °C 78 % 1006,2 hPa 0,0 l/m² 1,6 km/h W-SW 247 ° 0 min 0,0 UV-I 4,8 km/h
06.05.2026 00:45 12,8 °C 78 % 1006,5 hPa 0,0 l/m² 4,8 km/h S-SW 202 ° 0 min 0,0 UV-I 9,7 km/h
06.05.2026 00:00 12,3 °C 82 % 1006,0 hPa 0,0 l/m² 0,0 km/h N 0 ° 0 min 0,0 UV-I 0,0 km/h
_ Min-Zeit 06:15 16:00 17:55 - 10:20 - - - - 10:20
Minimum _ 9,0 °C 46 % 1002,2 hPa - 0,0 km/h - - - - 0,0 km/h
_ Max-Zeit 15:25 06:50 00:55 19:00 18:50 - - 17:15 12:30 18:50
Maximum _ 20,4 °C 88 % 1006,5 hPa 2,2 l/m² 18,2 km/h
S-SW
- - 5 min 3,6 UV-I 46,7 km/h
S
Durchschnitt _ 14,3 °C 72 % 1004,7 hPa #6,2 l/m² 2,2 km/h O-SO - #2:40 h 1,7 UV-I 6,0 km/h